Time;durP1;ratioP1;P1;durP2;ratioP2;P2;SDS_P1;SDS_P2;PMS_P1;PMS_P2;Temp;Humidity;BMP_temperature;BMP_pressure;BME280_temperature;BME280_humidity;BME280_pressure;Samples;Min_cycle;Max_cycle;Signal;HPM_P1;HPM_P2
2023/12/21 00:01:01;;;;;;;24.40;4.00;;;9.40;99.90;;;;;;5080825;28;20413;-72
2023/12/21 00:03:26;;;;;;;22.50;3.47;;;9.40;99.90;;;;;;5091870;28;20430;-72
2023/12/21 00:05:52;;;;;;;22.08;3.10;;;9.40;99.90;;;;;;5096514;28;20421;-72
2023/12/21 00:08:17;;;;;;;21.27;3.47;;;9.40;99.90;;;;;;5098559;28;20478;-72
2023/12/21 00:10:43;;;;;;;23.80;3.95;;;9.40;99.90;;;;;;5097133;28;20511;-72
2023/12/21 00:13:09;;;;;;;20.03;3.60;;;9.40;99.90;;;;;;5093574;28;20402;-72
2023/12/21 00:15:34;;;;;;;17.25;3.17;;;9.40;99.90;;;;;;5094311;28;20524;-72
2023/12/21 00:18:00;;;;;;;24.77;4.37;;;9.40;99.90;;;;;;5087726;28;20402;-72
2023/12/21 00:20:25;;;;;;;23.30;4.05;;;9.40;99.90;;;;;;5094746;28;20393;-72
2023/12/21 00:22:51;;;;;;;20.73;3.67;;;9.40;99.90;;;;;;5091604;28;20423;-72
2023/12/21 00:25:17;;;;;;;23.20;3.87;;;9.40;99.90;;;;;;5101042;28;20403;-72
2023/12/21 00:27:42;;;;;;;25.55;3.90;;;9.40;99.90;;;;;;5099567;28;20412;-73
2023/12/21 00:30:08;;;;;;;25.53;3.93;;;9.40;99.90;;;;;;5100040;28;20409;-72
2023/12/21 00:32:34;;;;;;;23.50;3.97;;;9.40;99.90;;;;;;5098863;28;20447;-72
2023/12/21 00:35:00;;;;;;;21.40;3.50;;;9.40;99.90;;;;;;5100356;28;20560;-72
2023/12/21 00:37:25;;;;;;;29.20;4.30;;;9.40;99.90;;;;;;5094944;28;20406;-72
2023/12/21 00:39:51;;;;;;;21.35;3.92;;;9.40;99.90;;;;;;5095030;28;20962;-72
2023/12/21 00:42:17;;;;;;;20.70;3.40;;;9.30;99.90;;;;;;5091058;28;20836;-72
2023/12/21 00:44:42;;;;;;;21.80;3.33;;;9.40;99.90;;;;;;5080488;28;20413;-72
2023/12/21 00:47:08;;;;;;;23.93;4.60;;;9.40;99.90;;;;;;5091205;28;20495;-72
2023/12/21 00:49:34;;;;;;;21.73;3.53;;;9.40;99.90;;;;;;5097466;28;20449;-72
2023/12/21 00:52:00;;;;;;;20.33;3.73;;;9.40;99.90;;;;;;5098665;28;20441;-72
2023/12/21 00:54:25;;;;;;;21.57;3.77;;;9.40;99.90;;;;;;5098434;28;20454;-72
2023/12/21 00:56:51;;;;;;;20.17;3.83;;;9.40;99.90;;;;;;5095683;28;20420;-72
2023/12/21 00:59:17;;;;;;;20.52;3.38;;;9.40;99.90;;;;;;5096471;28;20424;-72
2023/12/21 01:01:43;;;;;;;23.57;4.10;;;9.40;99.90;;;;;;5096093;28;20453;-72
2023/12/21 01:04:08;;;;;;;20.70;3.75;;;9.40;99.90;;;;;;5090274;28;20410;-72
2023/12/21 01:06:36;;;;;;;24.17;4.63;;;9.40;99.90;;;;;;5095317;28;20445;-72
2023/12/21 01:09:03;;;;;;;23.17;3.85;;;9.40;99.90;;;;;;5096763;28;20922;-72
2023/12/21 01:11:29;;;;;;;24.58;3.92;;;9.40;99.90;;;;;;5095956;28;20477;-72
2023/12/21 01:13:54;;;;;;;22.05;3.35;;;9.40;99.90;;;;;;5089557;28;20822;-72
2023/12/21 01:16:20;;;;;;;19.60;3.27;;;9.40;99.90;;;;;;5097274;28;20439;-72
2023/12/21 01:18:46;;;;;;;20.80;3.50;;;9.40;99.90;;;;;;5096587;28;20845;-72
2023/12/21 01:21:12;;;;;;;22.08;3.13;;;9.50;99.90;;;;;;5093428;28;20425;-72
2023/12/21 01:23:37;;;;;;;17.17;3.63;;;9.40;99.90;;;;;;5094195;28;20898;-72
2023/12/21 01:26:03;;;;;;;18.00;3.00;;;9.50;99.90;;;;;;5090311;28;20416;-72
2023/12/21 01:28:29;;;;;;;21.80;4.10;;;9.50;99.90;;;;;;5100687;28;20404;-72
2023/12/21 01:30:54;;;;;;;17.75;3.40;;;9.50;99.90;;;;;;5099949;28;20392;-72
2023/12/21 01:33:20;;;;;;;17.00;2.90;;;9.50;99.90;;;;;;5099873;28;20403;-72
2023/12/21 01:35:46;;;;;;;18.20;3.45;;;9.50;99.90;;;;;;5098411;28;20436;-72
2023/12/21 01:38:11;;;;;;;20.57;3.40;;;9.50;99.90;;;;;;5100040;28;20400;-72
2023/12/21 01:40:37;;;;;;;18.17;2.57;;;9.50;99.90;;;;;;5100167;28;20541;-72
2023/12/21 01:43:03;;;;;;;18.20;2.88;;;9.50;99.90;;;;;;5099522;28;20404;-72
2023/12/21 01:45:28;;;;;;;16.97;2.93;;;9.50;99.90;;;;;;5099391;28;20441;-72
2023/12/21 01:47:55;;;;;;;15.35;3.25;;;9.50;99.90;;;;;;5098680;28;20408;-72
2023/12/21 01:50:20;;;;;;;17.05;2.95;;;9.40;99.90;;;;;;5077274;28;20467;-72
2023/12/21 01:52:47;;;;;;;19.33;3.08;;;9.50;99.90;;;;;;5085559;28;20489;-72
2023/12/21 01:55:14;;;;;;;17.23;3.03;;;9.50;99.90;;;;;;5097514;28;20491;-72
2023/12/21 01:57:41;;;;;;;21.02;3.38;;;9.50;99.90;;;;;;5096781;28;20414;-72
2023/12/21 02:00:07;;;;;;;16.95;2.85;;;9.50;99.90;;;;;;5098945;28;20405;-72
2023/12/21 02:02:33;;;;;;;23.83;3.50;;;9.50;99.90;;;;;;5097941;28;20421;-72
2023/12/21 02:04:59;;;;;;;19.42;3.63;;;9.40;99.90;;;;;;5083264;28;21107;-72
2023/12/21 02:07:24;;;;;;;16.90;3.67;;;9.40;99.90;;;;;;5101050;28;20398;-72
2023/12/21 02:09:50;;;;;;;18.00;3.50;;;9.40;99.90;;;;;;5102046;28;20408;-72
2023/12/21 02:12:15;;;;;;;21.80;3.20;;;9.40;99.90;;;;;;5102243;28;20394;-72
2023/12/21 02:14:41;;;;;;;19.33;3.85;;;9.40;99.90;;;;;;5103634;28;20424;-72
2023/12/21 02:17:12;;;;;;;19.43;3.83;;;9.40;99.90;;;;;;5103147;28;20547;-72
2023/12/21 02:19:41;;;;;;;20.45;3.92;;;9.30;99.90;;;;;;5089978;28;20499;-72
2023/12/21 02:22:09;;;;;;;22.10;3.90;;;9.30;99.90;;;;;;5088633;28;20428;-72
2023/12/21 02:24:35;;;;;;;27.60;4.95;;;9.30;99.90;;;;;;5090148;28;20489;-72
2023/12/21 02:27:00;;;;;;;19.48;4.30;;;9.30;99.90;;;;;;5105262;28;20538;-72
2023/12/21 02:29:26;;;;;;;19.00;3.90;;;9.30;99.90;;;;;;5089748;28;20402;-72
2023/12/21 02:31:52;;;;;;;19.95;3.97;;;9.30;99.90;;;;;;5098971;28;20492;-72
2023/12/21 02:34:17;;;;;;;21.50;4.77;;;9.30;99.90;;;;;;5094910;28;20426;-72
2023/12/21 02:36:43;;;;;;;20.27;4.03;;;9.30;99.90;;;;;;5097601;28;20437;-72
2023/12/21 02:39:08;;;;;;;22.15;4.53;;;9.30;99.90;;;;;;5100670;28;20552;-72
2023/12/21 02:41:34;;;;;;;16.57;3.70;;;9.20;99.90;;;;;;5105573;28;20408;-72
2023/12/21 02:44:00;;;;;;;22.05;5.28;;;9.20;99.90;;;;;;5103598;28;20400;-72
2023/12/21 02:46:27;;;;;;;17.57;4.33;;;9.20;99.90;;;;;;5103218;28;20400;-72
2023/12/21 02:48:52;;;;;;;19.35;4.70;;;9.20;99.90;;;;;;5105180;28;20414;-72
2023/12/21 02:51:18;;;;;;;19.42;4.28;;;9.20;99.90;;;;;;5103874;28;20388;-72
2023/12/21 02:53:44;;;;;;;15.97;4.40;;;9.20;99.90;;;;;;5095722;28;20492;-72
2023/12/21 02:56:09;;;;;;;20.90;5.07;;;9.30;99.90;;;;;;5100540;28;20400;-72
2023/12/21 02:58:36;;;;;;;16.02;3.78;;;9.20;99.90;;;;;;5105819;28;20404;-72
2023/12/21 03:01:02;;;;;;;21.75;4.78;;;9.20;99.90;;;;;;5106725;28;20457;-73
2023/12/21 03:03:28;;;;;;;17.63;4.68;;;9.20;99.90;;;;;;5095197;28;20407;-72
2023/12/21 03:05:53;;;;;;;20.23;5.13;;;9.20;99.90;;;;;;5104851;28;20412;-72
2023/12/21 03:08:19;;;;;;;16.57;4.57;;;9.20;99.90;;;;;;5088619;28;20400;-72
2023/12/21 03:10:45;;;;;;;18.02;4.38;;;9.20;99.90;;;;;;5106892;28;20806;-72
2023/12/21 03:13:11;;;;;;;22.87;5.33;;;9.20;99.90;;;;;;5106464;28;20400;-72
2023/12/21 03:15:37;;;;;;;18.38;4.75;;;9.20;99.90;;;;;;5103301;28;20432;-72
2023/12/21 03:18:02;;;;;;;17.92;5.07;;;9.20;99.90;;;;;;5087990;28;20400;-72
2023/12/21 03:20:28;;;;;;;17.17;4.40;;;9.20;99.90;;;;;;5104909;28;20427;-72
2023/12/21 03:22:54;;;;;;;16.10;4.32;;;9.20;99.90;;;;;;5106314;28;20490;-72
2023/12/21 03:25:19;;;;;;;19.73;5.20;;;9.20;99.90;;;;;;5106848;28;20846;-72
2023/12/21 03:27:47;;;;;;;16.90;4.63;;;9.30;99.90;;;;;;5099254;28;20406;-72
2023/12/21 03:30:12;;;;;;;16.60;5.00;;;9.30;99.90;;;;;;5099062;28;20408;-73
2023/12/21 03:32:38;;;;;;;15.37;4.60;;;9.20;99.90;;;;;;5101858;28;20409;-72
2023/12/21 03:35:07;;;;;;;18.02;5.28;;;9.20;99.90;;;;;;5105365;28;20510;-72
2023/12/21 03:37:32;;;;;;;15.20;4.53;;;9.30;99.90;;;;;;5103910;28;20400;-72
2023/12/21 03:39:58;;;;;;;19.17;5.07;;;9.20;99.90;;;;;;5105707;28;20400;-72
2023/12/21 03:42:24;;;;;;;16.55;4.53;;;9.20;99.90;;;;;;5103660;28;20431;-72
2023/12/21 03:44:49;;;;;;;19.20;4.80;;;9.20;99.90;;;;;;5087057;28;20408;-72
2023/12/21 03:47:15;;;;;;;18.42;5.28;;;9.20;99.90;;;;;;5102936;28;20490;-72
2023/12/21 03:49:41;;;;;;;18.73;5.60;;;9.20;99.90;;;;;;5105520;28;20399;-72
2023/12/21 03:52:06;;;;;;;15.30;5.30;;;9.20;99.90;;;;;;5104106;28;20921;-72
2023/12/21 03:54:32;;;;;;;13.48;4.32;;;9.20;99.90;;;;;;5104963;28;20507;-72
2023/12/21 03:56:58;;;;;;;18.00;5.60;;;9.20;99.90;;;;;;5103154;28;20480;-72
2023/12/21 03:59:23;;;;;;;20.63;5.25;;;9.20;99.90;;;;;;5104159;28;20404;-72
2023/12/21 04:01:49;;;;;;;17.63;5.55;;;9.20;99.90;;;;;;5103996;28;20830;-72
2023/12/21 04:04:14;;;;;;;20.53;5.80;;;9.20;99.90;;;;;;5103607;28;20411;-72
2023/12/21 04:06:40;;;;;;;19.00;5.25;;;9.20;99.90;;;;;;5099657;28;20444;-72
2023/12/21 04:09:06;;;;;;;15.60;5.00;;;9.20;99.90;;;;;;5102379;28;20408;-72
2023/12/21 04:11:31;;;;;;;18.77;5.78;;;9.20;99.90;;;;;;5087781;28;20498;-72
2023/12/21 04:13:57;;;;;;;18.77;5.03;;;9.20;99.90;;;;;;5098700;28;20409;-72
2023/12/21 04:16:22;;;;;;;24.27;5.97;;;9.20;99.90;;;;;;5100464;28;20421;-73
2023/12/21 04:18:48;;;;;;;17.98;5.38;;;9.20;99.90;;;;;;5102204;28;20404;-73
2023/12/21 04:21:14;;;;;;;16.27;4.90;;;9.20;99.90;;;;;;5084075;28;20410;-72
2023/12/21 04:23:39;;;;;;;17.33;4.65;;;9.20;99.90;;;;;;5086377;28;20437;-73
2023/12/21 04:26:05;;;;;;;17.50;5.23;;;9.20;99.90;;;;;;5098348;28;20408;-72
2023/12/21 04:28:31;;;;;;;18.75;5.55;;;9.20;99.90;;;;;;5092497;28;20761;-73
2023/12/21 04:30:56;;;;;;;15.98;4.97;;;9.20;99.90;;;;;;5103131;28;20873;-72
2023/12/21 04:33:22;;;;;;;19.10;5.07;;;9.20;99.90;;;;;;5104505;28;20735;-73
2023/12/21 04:35:47;;;;;;;16.75;4.25;;;9.20;99.90;;;;;;5097919;28;20731;-73
2023/12/21 04:38:13;;;;;;;19.17;5.20;;;9.20;99.90;;;;;;5099217;28;20400;-72
2023/12/21 04:40:39;;;;;;;19.98;5.65;;;9.20;99.90;;;;;;5102772;28;20400;-72
2023/12/21 04:43:06;;;;;;;21.23;5.30;;;9.20;99.90;;;;;;5104337;28;20411;-72
2023/12/21 04:45:32;;;;;;;17.15;4.53;;;9.20;99.90;;;;;;5087330;28;20404;-73
2023/12/21 04:47:58;;;;;;;18.83;5.00;;;9.20;99.90;;;;;;5097331;28;20479;-72
2023/12/21 04:50:23;;;;;;;17.33;4.77;;;9.20;99.90;;;;;;5100736;28;20425;-73
2023/12/21 04:52:49;;;;;;;16.08;4.03;;;9.20;99.90;;;;;;5103322;28;20485;-73
2023/12/21 04:55:16;;;;;;;21.38;5.63;;;9.20;99.90;;;;;;5096837;28;20422;-72
2023/12/21 04:57:41;;;;;;;19.17;5.38;;;9.20;99.90;;;;;;5096690;28;20450;-73
2023/12/21 05:00:08;;;;;;;18.15;4.80;;;9.20;99.90;;;;;;5098895;28;20412;-73
2023/12/21 05:02:34;;;;;;;18.13;4.97;;;9.20;99.90;;;;;;5104486;28;20536;-73
2023/12/21 05:05:00;;;;;;;19.35;5.05;;;9.20;99.90;;;;;;5100366;28;20401;-73
2023/12/21 05:07:25;;;;;;;18.63;5.22;;;9.20;99.90;;;;;;5104245;28;20397;-73
2023/12/21 05:09:51;;;;;;;13.65;4.20;;;9.20;99.90;;;;;;5100947;28;20469;-73
2023/12/21 05:12:17;;;;;;;20.10;4.88;;;9.20;99.90;;;;;;5103252;28;20400;-73
2023/12/21 05:14:43;;;;;;;17.00;4.90;;;9.20;99.90;;;;;;5099312;28;20437;-73
2023/12/21 05:17:08;;;;;;;17.55;4.95;;;9.20;99.90;;;;;;5093959;28;20449;-73
2023/12/21 05:19:34;;;;;;;17.83;4.40;;;9.20;99.90;;;;;;5079929;28;20406;-73
2023/12/21 05:22:00;;;;;;;21.70;4.80;;;9.20;99.90;;;;;;5103512;28;20435;-73
2023/12/21 05:24:25;;;;;;;13.77;3.92;;;9.20;99.90;;;;;;5089105;28;20922;-73
2023/12/21 05:26:51;;;;;;;15.60;4.03;;;9.20;99.90;;;;;;5101584;28;20524;-72
2023/12/21 05:29:16;;;;;;;18.42;4.80;;;9.20;99.90;;;;;;5091860;28;20428;-73
2023/12/21 05:31:42;;;;;;;15.37;4.17;;;9.20;99.90;;;;;;5105682;28;20408;-73
2023/12/21 05:34:08;;;;;;;14.90;4.07;;;9.20;99.90;;;;;;5100978;28;20404;-73
2023/12/21 05:36:33;;;;;;;16.40;4.00;;;9.20;99.90;;;;;;5104198;28;20400;-73
2023/12/21 05:39:00;;;;;;;14.23;4.00;;;9.20;99.90;;;;;;5069964;28;20402;-73
2023/12/21 05:41:26;;;;;;;17.73;3.90;;;9.20;99.90;;;;;;5089299;28;20409;-73
2023/12/21 05:43:51;;;;;;;13.20;3.57;;;9.20;99.90;;;;;;5101411;28;20410;-73
2023/12/21 05:46:17;;;;;;;15.93;4.27;;;9.20;99.90;;;;;;5100183;28;20404;-73
2023/12/21 05:48:43;;;;;;;15.57;4.03;;;9.20;99.90;;;;;;5104737;28;20777;-73
2023/12/21 05:51:08;;;;;;;15.13;3.57;;;9.20;99.90;;;;;;5098292;28;20402;-73
2023/12/21 05:53:34;;;;;;;11.63;3.90;;;9.20;99.90;;;;;;5099886;28;20402;-73
2023/12/21 05:56:00;;;;;;;15.40;4.13;;;9.20;99.90;;;;;;5099387;28;20456;-73
2023/12/21 05:58:25;;;;;;;12.67;3.50;;;9.20;99.90;;;;;;5103121;28;20392;-73
2023/12/21 06:00:51;;;;;;;17.70;4.32;;;9.20;99.90;;;;;;5107786;27;20801;-73
2023/12/21 06:03:17;;;;;;;17.48;4.13;;;9.20;99.90;;;;;;5102760;28;20401;-73
2023/12/21 06:05:42;;;;;;;15.50;4.10;;;9.20;99.90;;;;;;5107768;28;20412;-73
2023/12/21 06:08:10;;;;;;;17.50;3.90;;;9.20;99.90;;;;;;5102877;28;20434;-73
2023/12/21 06:10:35;;;;;;;16.57;3.83;;;9.20;99.90;;;;;;5096793;28;20841;-73
2023/12/21 06:13:01;;;;;;;16.35;3.75;;;9.20;99.90;;;;;;5102119;28;20794;-73
2023/12/21 06:15:26;;;;;;;13.83;3.60;;;9.20;99.90;;;;;;5105270;28;20482;-73
2023/12/21 06:17:52;;;;;;;14.85;3.80;;;9.20;99.90;;;;;;5100967;28;20419;-73
2023/12/21 06:20:18;;;;;;;12.43;3.30;;;9.20;99.90;;;;;;5105323;28;20778;-73
2023/12/21 06:22:43;;;;;;;16.20;3.07;;;9.20;99.90;;;;;;5091626;28;20402;-72
2023/12/21 06:25:11;;;;;;;14.85;3.25;;;9.20;99.90;;;;;;5104788;28;21183;-72
2023/12/21 06:27:37;;;;;;;14.82;3.33;;;9.20;99.90;;;;;;5099621;28;20764;-72
2023/12/21 06:30:04;;;;;;;14.73;3.58;;;9.20;99.90;;;;;;5089326;28;20406;-73
2023/12/21 06:32:30;;;;;;;15.77;3.57;;;9.20;99.90;;;;;;5092914;28;20420;-71
2023/12/21 06:34:56;;;;;;;18.17;3.60;;;9.20;99.90;;;;;;5106204;28;20432;-71
2023/12/21 06:37:21;;;;;;;13.73;3.55;;;9.30;99.90;;;;;;5104067;28;20457;-71
2023/12/21 06:39:47;;;;;;;15.87;3.60;;;9.20;99.90;;;;;;5096652;28;20424;-72
2023/12/21 06:42:12;;;;;;;13.75;3.20;;;9.30;99.90;;;;;;5090809;28;20523;-73
2023/12/21 06:44:39;;;;;;;14.20;3.20;;;9.20;99.90;;;;;;5108040;28;20965;-74
2023/12/21 06:47:05;;;;;;;16.17;3.15;;;9.30;99.90;;;;;;5103865;28;20502;-74
2023/12/21 06:49:31;;;;;;;17.40;3.60;;;9.30;99.90;;;;;;5108011;28;20404;-74
2023/12/21 06:51:56;;;;;;;14.77;3.42;;;9.30;99.90;;;;;;5103692;28;20778;-74
2023/12/21 06:54:22;;;;;;;14.77;3.10;;;9.30;99.90;;;;;;5105366;28;20523;-74
2023/12/21 06:56:47;;;;;;;12.15;3.30;;;9.30;99.90;;;;;;5098786;28;20915;-74
2023/12/21 06:59:13;;;;;;;14.60;3.30;;;9.30;99.90;;;;;;5097634;28;20420;-74
2023/12/21 07:01:40;;;;;;;12.07;2.70;;;9.30;99.90;;;;;;5101493;28;20780;-74
2023/12/21 07:04:08;;;;;;;10.68;2.28;;;9.30;99.90;;;;;;5106226;28;20392;-75
2023/12/21 07:06:34;;;;;;;13.00;2.42;;;9.30;99.90;;;;;;5101023;28;20417;-74
2023/12/21 07:09:00;;;;;;;12.98;2.78;;;9.30;99.90;;;;;;5097206;28;20484;-74
2023/12/21 07:11:26;;;;;;;9.80;2.17;;;9.30;99.90;;;;;;5097974;28;20479;-74
2023/12/21 07:13:52;;;;;;;7.40;2.00;;;9.30;99.90;;;;;;5103904;28;20401;-74
2023/12/21 07:16:18;;;;;;;10.05;2.40;;;9.30;99.90;;;;;;5099457;28;20433;-74
2023/12/21 07:18:43;;;;;;;8.20;2.07;;;9.30;99.90;;;;;;5096247;28;20402;-75
2023/12/21 07:21:09;;;;;;;8.95;2.28;;;9.30;99.90;;;;;;5098568;28;20398;-75
2023/12/21 07:23:35;;;;;;;7.30;1.60;;;9.30;99.90;;;;;;5094554;28;20402;-75
2023/12/21 07:26:00;;;;;;;7.70;1.67;;;9.30;99.90;;;;;;5098735;28;20903;-75
2023/12/21 07:28:28;;;;;;;6.90;1.70;;;9.30;99.90;;;;;;5095115;28;20421;-75
2023/12/21 07:30:54;;;;;;;6.37;1.57;;;9.30;99.90;;;;;;5098412;28;20405;-75
2023/12/21 07:33:19;;;;;;;5.40;1.20;;;9.30;99.90;;;;;;5098798;28;20416;-75
2023/12/21 07:35:45;;;;;;;5.45;1.45;;;9.30;99.90;;;;;;5102934;28;20469;-75
2023/12/21 07:38:10;;;;;;;3.27;0.93;;;9.30;99.90;;;;;;5107252;28;20428;-75
2023/12/21 07:40:36;;;;;;;4.95;1.08;;;9.30;99.90;;;;;;5101410;28;20403;-75
2023/12/21 07:43:02;;;;;;;6.30;1.37;;;9.30;99.90;;;;;;5105165;28;20408;-75
2023/12/21 07:45:27;;;;;;;4.20;1.07;;;9.30;99.90;;;;;;5101520;28;20443;-75
2023/12/21 07:47:53;;;;;;;5.15;1.25;;;9.30;99.90;;;;;;5104504;28;20414;-75
2023/12/21 07:50:18;;;;;;;5.87;1.50;;;9.30;99.90;;;;;;5101268;28;20978;-75
2023/12/21 07:52:44;;;;;;;6.50;1.00;;;9.30;99.90;;;;;;5104385;28;20411;-75
2023/12/21 07:55:09;;;;;;;5.13;0.87;;;9.30;99.90;;;;;;5091431;28;20432;-75
2023/12/21 07:57:35;;;;;;;4.60;1.17;;;9.30;99.90;;;;;;5103734;28;20462;-75
2023/12/21 08:00:01;;;;;;;8.07;1.63;;;9.30;99.90;;;;;;5098472;28;20919;-75
2023/12/21 08:02:27;;;;;;;5.33;1.17;;;9.40;99.90;;;;;;5102855;28;20448;-75
2023/12/21 08:04:52;;;;;;;7.13;1.40;;;9.40;99.90;;;;;;5095851;28;20409;-75
2023/12/21 08:07:18;;;;;;;7.60;1.30;;;9.30;99.90;;;;;;5096246;28;20414;-75
2023/12/21 08:09:45;;;;;;;5.53;1.30;;;9.30;99.90;;;;;;5097984;28;20467;-75
2023/12/21 08:12:13;;;;;;;5.05;1.30;;;9.40;99.90;;;;;;5103293;28;20409;-75
2023/12/21 08:14:39;;;;;;;10.82;1.60;;;9.40;99.90;;;;;;5099736;28;20436;-75
2023/12/21 08:17:09;;;;;;;9.65;1.38;;;9.40;99.90;;;;;;5094173;28;20802;-75
2023/12/21 08:19:38;;;;;;;6.63;1.43;;;9.40;99.90;;;;;;5086697;28;20451;-75
2023/12/21 08:22:04;;;;;;;10.00;2.05;;;9.40;99.90;;;;;;5103199;28;20400;-75
2023/12/21 08:24:30;;;;;;;11.93;2.05;;;9.50;99.90;;;;;;5099573;28;20434;-75
2023/12/21 08:26:56;;;;;;;11.63;2.83;;;9.50;99.90;;;;;;5100501;28;20400;-74
2023/12/21 08:29:21;;;;;;;14.02;2.70;;;9.50;99.90;;;;;;5091405;28;20408;-74
2023/12/21 08:31:47;;;;;;;13.97;2.40;;;9.50;99.90;;;;;;5106435;28;20404;-74
2023/12/21 08:34:13;;;;;;;16.73;3.00;;;9.50;99.90;;;;;;5100900;28;20409;-74
2023/12/21 08:36:39;;;;;;;18.23;3.00;;;9.50;99.90;;;;;;5104066;28;20408;-74
2023/12/21 08:39:04;;;;;;;16.83;3.50;;;9.60;99.90;;;;;;5098385;28;20407;-74
2023/12/21 08:41:30;;;;;;;21.27;3.87;;;9.60;99.90;;;;;;5092897;28;20424;-75
2023/12/21 08:43:56;;;;;;;18.13;3.13;;;9.60;99.90;;;;;;5100528;28;20524;-74
2023/12/21 08:46:22;;;;;;;19.42;3.25;;;9.60;99.90;;;;;;5105106;28;20408;-74
2023/12/21 08:48:47;;;;;;;17.50;3.20;;;9.60;99.90;;;;;;5100002;28;20949;-74
2023/12/21 08:51:14;;;;;;;19.27;3.60;;;9.60;99.90;;;;;;5104441;28;20443;-75
2023/12/21 08:53:40;;;;;;;19.42;3.30;;;9.60;99.90;;;;;;5100166;28;20400;-75
2023/12/21 08:56:06;;;;;;;15.23;3.00;;;9.70;99.90;;;;;;5102604;28;20937;-75
2023/12/21 08:58:31;;;;;;;19.97;3.87;;;9.70;99.90;;;;;;5099729;28;20420;-75
2023/12/21 09:00:58;;;;;;;19.08;3.50;;;9.70;99.90;;;;;;5101979;28;21383;-75
2023/12/21 09:03:24;;;;;;;15.70;2.85;;;9.70;99.90;;;;;;5099694;28;20774;-74
2023/12/21 09:05:50;;;;;;;20.70;3.30;;;9.70;99.90;;;;;;5101034;28;20476;-75
2023/12/21 09:08:16;;;;;;;21.35;3.30;;;9.70;99.90;;;;;;5097810;28;20507;-74
2023/12/21 09:10:42;;;;;;;19.30;3.27;;;9.80;99.90;;;;;;5100575;28;20396;-75
2023/12/21 09:13:07;;;;;;;15.90;2.83;;;9.80;99.90;;;;;;5099559;28;20771;-75
2023/12/21 09:15:33;;;;;;;18.75;3.35;;;9.80;99.90;;;;;;5104590;28;20432;-75
2023/12/21 09:17:59;;;;;;;21.75;3.25;;;9.80;99.90;;;;;;5098293;28;20417;-74
2023/12/21 09:20:25;;;;;;;16.90;2.77;;;9.80;99.90;;;;;;5097431;28;20409;-75
2023/12/21 09:22:50;;;;;;;18.02;3.13;;;9.90;99.90;;;;;;5101270;28;20875;-75
2023/12/21 09:25:18;;;;;;;15.27;3.13;;;9.90;99.90;;;;;;5105498;28;20416;-75
2023/12/21 09:27:44;;;;;;;16.80;2.70;;;9.90;99.90;;;;;;5098791;28;20416;-75
2023/12/21 09:30:10;;;;;;;20.17;3.40;;;9.90;99.90;;;;;;5100812;28;20400;-74
2023/12/21 09:32:35;;;;;;;15.77;2.80;;;9.90;99.90;;;;;;5104569;28;20404;-75
2023/12/21 09:35:01;;;;;;;18.33;2.93;;;9.90;99.90;;;;;;5109074;28;20465;-75
2023/12/21 09:37:26;;;;;;;11.75;1.98;;;9.90;99.90;;;;;;5104059;28;20414;-75
2023/12/21 09:39:53;;;;;;;20.77;3.17;;;9.90;99.90;;;;;;5089786;28;20443;-75
2023/12/21 09:42:19;;;;;;;14.15;2.47;;;10.00;99.90;;;;;;5103196;28;20782;-75
2023/12/21 09:44:47;;;;;;;23.02;3.28;;;10.00;99.90;;;;;;5107557;28;20404;-75
2023/12/21 09:47:16;;;;;;;16.25;2.88;;;10.00;99.90;;;;;;5093257;28;20412;-75
2023/12/21 09:49:44;;;;;;;19.48;3.47;;;10.00;99.90;;;;;;5104298;27;20440;-75
2023/12/21 09:52:11;;;;;;;19.75;3.28;;;10.10;99.90;;;;;;5105613;28;20404;-75
2023/12/21 09:54:39;;;;;;;19.00;2.75;;;10.10;99.90;;;;;;5106216;28;20416;-75
2023/12/21 09:57:05;;;;;;;17.80;2.88;;;10.10;99.90;;;;;;5106279;28;20926;-75
2023/12/21 09:59:34;;;;;;;19.83;3.22;;;10.10;99.90;;;;;;5106172;28;20412;-75
2023/12/21 10:02:01;;;;;;;17.67;2.50;;;10.10;99.90;;;;;;5105954;28;20466;-75
2023/12/21 10:04:26;;;;;;;17.03;3.00;;;10.10;99.90;;;;;;5104839;28;20412;-75
2023/12/21 10:06:52;;;;;;;14.43;2.37;;;10.10;99.90;;;;;;5106494;28;20490;-75
2023/12/21 10:09:19;;;;;;;15.05;2.75;;;10.10;99.90;;;;;;5105941;28;20486;-75
2023/12/21 10:11:44;;;;;;;15.35;2.03;;;10.10;99.90;;;;;;5104883;28;20941;-75
2023/12/21 10:14:19;;;;;;;16.15;3.13;;;10.10;99.90;;;;;;5105121;28;20411;-75
2023/12/21 10:16:45;;;;;;;15.25;2.80;;;10.20;99.90;;;;;;5107620;28;20406;-75
2023/12/21 10:19:16;;;;;;;18.55;3.30;;;10.20;99.90;;;;;;5102953;28;20779;-75
2023/12/21 10:21:42;;;;;;;19.20;3.50;;;10.30;99.90;;;;;;5086799;28;20401;-75
2023/12/21 10:24:10;;;;;;;16.88;3.30;;;10.30;99.90;;;;;;5102725;28;20405;-76
2023/12/21 10:26:47;;;;;;;19.48;3.33;;;10.30;99.90;;;;;;5098089;28;20422;-75
2023/12/21 10:29:16;;;;;;;20.08;3.38;;;10.30;99.90;;;;;;5092005;28;20507;-75
2023/12/21 10:31:47;;;;;;;27.38;4.07;;;10.30;99.90;;;;;;5107634;28;20416;-75
2023/12/21 10:34:14;;;;;;;20.00;3.90;;;10.30;99.90;;;;;;5105900;28;20404;-75
2023/12/21 10:36:44;;;;;;;22.93;4.33;;;10.30;99.90;;;;;;5108131;28;20400;-75
2023/12/21 10:39:11;;;;;;;20.02;3.10;;;10.40;99.90;;;;;;5105769;28;20466;-75
2023/12/21 10:41:39;;;;;;;21.52;2.95;;;10.40;99.90;;;;;;5105909;28;20993;-76
2023/12/21 10:44:05;;;;;;;20.33;3.03;;;10.40;99.90;;;;;;5107245;28;20401;-76
2023/12/21 10:46:31;;;;;;;22.15;3.80;;;10.40;99.90;;;;;;5105088;28;20415;-76
2023/12/21 10:49:01;;;;;;;18.15;2.90;;;10.30;99.90;;;;;;5089802;28;20408;-76
2023/12/21 10:51:29;;;;;;;14.13;2.53;;;10.30;99.90;;;;;;5098860;28;20431;-76
2023/12/21 10:53:57;;;;;;;19.60;3.17;;;10.30;99.90;;;;;;5087436;28;20439;-76
2023/12/21 10:56:24;;;;;;;21.23;3.55;;;10.30;99.90;;;;;;5075665;28;20430;-76
2023/12/21 10:58:52;;;;;;;22.57;4.50;;;10.20;99.90;;;;;;5104421;28;20412;-76
2023/12/21 11:01:20;;;;;;;20.30;3.20;;;10.20;99.90;;;;;;5102260;28;20451;-76
2023/12/21 11:03:48;;;;;;;21.00;3.88;;;10.10;99.90;;;;;;5098127;28;20410;-76
2023/12/21 11:06:17;;;;;;;26.67;3.85;;;10.10;99.90;;;;;;5099598;28;20433;-76
2023/12/21 11:08:44;;;;;;;24.63;4.57;;;10.10;99.90;;;;;;5106467;28;20766;-76
2023/12/21 11:11:11;;;;;;;19.20;3.88;;;10.20;99.90;;;;;;5092499;28;20398;-76
2023/12/21 11:13:41;;;;;;;19.13;3.42;;;10.30;99.90;;;;;;5105544;28;20403;-75
2023/12/21 11:16:09;;;;;;;21.67;4.22;;;10.40;99.90;;;;;;5100759;28;20434;-75
2023/12/21 11:18:35;;;;;;;20.70;3.28;;;10.40;99.90;;;;;;5105575;28;20404;-75
2023/12/21 11:21:02;;;;;;;21.23;3.78;;;10.40;99.90;;;;;;5099649;28;20402;-75
2023/12/21 11:23:29;;;;;;;22.90;3.83;;;10.40;99.90;;;;;;5103812;28;20491;-75
2023/12/21 11:25:59;;;;;;;22.40;4.83;;;10.50;99.90;;;;;;5099151;28;20455;-75
2023/12/21 11:28:32;;;;;;;18.45;3.25;;;10.50;99.90;;;;;;5089625;28;20401;-75
2023/12/21 11:30:58;;;;;;;23.17;4.28;;;10.50;99.90;;;;;;5100369;28;20975;-75
2023/12/21 11:33:30;;;;;;;24.77;4.40;;;10.50;99.90;;;;;;5099661;28;20516;-75
2023/12/21 11:35:58;;;;;;;22.80;3.83;;;10.60;99.90;;;;;;5103378;28;21043;-75
2023/12/21 11:38:44;;;;;;;22.33;3.80;;;10.60;99.90;;;;;;5105807;28;20520;-76
2023/12/21 11:41:11;;;;;;;20.00;3.60;;;10.60;99.90;;;;;;5096793;28;20400;-75
2023/12/21 11:43:36;;;;;;;22.63;4.03;;;10.70;99.90;;;;;;5103891;28;20443;-75
2023/12/21 11:46:02;;;;;;;20.43;3.90;;;10.80;98.90;;;;;;5106919;28;20406;-75
2023/12/21 11:48:33;;;;;;;16.15;3.20;;;10.90;98.30;;;;;;5103967;28;20406;-75
2023/12/21 11:51:02;;;;;;;23.80;3.93;;;10.90;95.90;;;;;;5106589;28;20408;-75
2023/12/21 11:53:28;;;;;;;17.35;3.15;;;10.90;96.40;;;;;;5104048;28;20420;-76
2023/12/21 11:55:54;;;;;;;18.30;3.20;;;11.00;94.00;;;;;;5104977;28;20514;-75
2023/12/21 11:58:22;;;;;;;19.38;3.22;;;11.00;93.40;;;;;;5103002;28;20406;-75
2023/12/21 12:00:58;;;;;;;22.02;3.90;;;11.10;92.40;;;;;;5096294;28;20501;-75
2023/12/21 12:03:27;;;;;;;18.48;4.10;;;11.10;92.30;;;;;;5070881;28;20412;-75
2023/12/21 12:05:59;;;;;;;16.45;3.30;;;11.10;92.60;;;;;;5102754;28;20408;-75
2023/12/21 12:08:25;;;;;;;18.48;3.53;;;11.10;90.80;;;;;;5097056;28;20414;-76
2023/12/21 12:10:56;;;;;;;21.33;4.17;;;11.10;91.50;;;;;;5096657;28;20404;-76
2023/12/21 12:13:22;;;;;;;23.33;5.22;;;11.10;90.40;;;;;;5102608;28;20404;-75
2023/12/21 12:15:48;;;;;;;27.75;4.43;;;11.10;91.70;;;;;;5103012;28;20458;-76
2023/12/21 12:18:14;;;;;;;25.00;4.30;;;11.00;93.20;;;;;;5103288;28;20404;-76
2023/12/21 12:20:44;;;;;;;22.00;4.67;;;10.90;94.00;;;;;;5102528;28;20735;-76
2023/12/21 12:23:11;;;;;;;13.90;1.83;;;10.80;92.90;;;;;;5103644;28;20831;-75
2023/12/21 12:25:37;;;;;;;8.50;1.13;;;10.10;93.70;;;;;;5101164;28;20449;-76
2023/12/21 12:28:04;;;;;;;10.55;1.10;;;9.20;90.00;;;;;;5094887;28;20409;-75
2023/12/21 12:30:30;;;;;;;15.03;2.23;;;8.70;91.50;;;;;;5100071;28;20412;-76
2023/12/21 12:32:56;;;;;;;14.55;2.47;;;8.30;94.60;;;;;;5106408;28;20445;-76
2023/12/21 12:35:22;;;;;;;14.50;2.17;;;8.10;96.10;;;;;;5101956;28;20849;-76
2023/12/21 12:37:48;;;;;;;16.77;2.80;;;8.00;97.20;;;;;;5106247;28;20397;-75
2023/12/21 12:40:15;;;;;;;19.25;2.60;;;7.90;98.10;;;;;;5103792;28;20394;-76